Time;durP1;ratioP1;P1;durP2;ratioP2;P2;SDS_P1;SDS_P2;PMS_P1;PMS_P2;Temp;Humidity;BMP_temperature;BMP_pressure;BME280_temperature;BME280_humidity;BME280_pressure;Samples;Min_cycle;Max_cycle;Signal;HPM_P1;HPM_P2
2022/08/29 00:00:31;;;;;;;13.15;9.88;;;;;;;;;;5090100;28;20038;-73
2022/08/29 00:02:58;;;;;;;15.38;10.50;;;;;;;;;;5090527;28;20021;-73
2022/08/29 00:05:27;;;;;;;14.15;9.65;;;;;;;;;;5082433;28;20012;-73
2022/08/29 00:07:53;;;;;;;12.55;10.20;;;;;;;;;;5092348;28;20020;-74
2022/08/29 00:10:20;;;;;;;13.40;10.82;;;;;;;;;;5126581;27;20135;-74
2022/08/29 00:12:46;;;;;;;14.95;9.30;;;;;;;;;;5126468;27;20070;-73
2022/08/29 00:15:13;;;;;;;18.77;11.45;;;;;;;;;;5093257;28;20012;-73
2022/08/29 00:17:39;;;;;;;14.27;10.55;;;;;;;;;;5092309;28;20024;-76
2022/08/29 00:20:07;;;;;;;19.67;11.45;;;;;;;;;;5093723;28;20505;-75
2022/08/29 00:22:33;;;;;;;17.38;11.50;;;;;;;;;;5125840;27;20072;-76
2022/08/29 00:25:03;;;;;;;11.82;10.35;;;;;;;;;;5093322;28;20071;-75
2022/08/29 00:27:29;;;;;;;12.25;9.88;;;;;;;;;;5093289;28;20065;-75
2022/08/29 00:29:55;;;;;;;17.15;11.70;;;;;;;;;;5093140;28;20051;-74
2022/08/29 00:32:21;;;;;;;19.73;11.20;;;;;;;;;;5091971;28;20068;-74
2022/08/29 00:34:47;;;;;;;14.35;10.82;;;;;;;;;;5082819;28;20020;-74
2022/08/29 00:37:14;;;;;;;18.52;13.35;;;;;;;;;;5091983;28;20038;-75
2022/08/29 00:39:40;;;;;;;16.70;11.68;;;;;;;;;;5116682;27;20032;-75
2022/08/29 00:42:06;;;;;;;14.50;12.00;;;;;;;;;;5112521;27;20103;-75
2022/08/29 00:44:32;;;;;;;18.63;11.95;;;;;;;;;;5091031;28;20105;-75
2022/08/29 00:47:02;;;;;;;17.55;11.48;;;;;;;;;;5091779;28;20020;-76
2022/08/29 00:49:35;;;;;;;14.18;11.38;;;;;;;;;;5092947;28;20132;-74
2022/08/29 00:52:05;;;;;;;23.20;12.27;;;;;;;;;;5093080;28;20047;-74
2022/08/29 00:54:31;;;;;;;21.38;12.93;;;;;;;;;;5125694;27;20047;-75
2022/08/29 00:56:57;;;;;;;15.68;12.70;;;;;;;;;;5092888;28;20019;-75
2022/08/29 00:59:25;;;;;;;13.18;11.57;;;;;;;;;;5092783;28;20036;-75
2022/08/29 01:01:51;;;;;;;23.27;13.23;;;;;;;;;;5093080;28;20020;-75
2022/08/29 01:04:17;;;;;;;16.85;12.45;;;;;;;;;;5125335;27;20020;-75
2022/08/29 01:06:44;;;;;;;13.18;11.75;;;;;;;;;;5091402;28;20471;-75
2022/08/29 01:09:10;;;;;;;16.83;11.07;;;;;;;;;;5091135;28;20020;-76
2022/08/29 01:14:22;;;;;;;14.70;11.23;;;;;;;;;;5088751;28;20069;-74
2022/08/29 01:16:51;;;;;;;22.98;13.10;;;;;;;;;;5117467;27;20459;-74
2022/08/29 01:19:23;;;;;;;16.15;11.52;;;;;;;;;;5087448;28;20039;-75
2022/08/29 01:21:52;;;;;;;15.83;13.63;;;;;;;;;;5084319;28;20024;-75
2022/08/29 01:24:37;;;;;;;13.00;11.27;;;;;;;;;;5090303;28;20071;-74
2022/08/29 01:27:03;;;;;;;17.00;12.57;;;;;;;;;;5084933;28;20012;-73
2022/08/29 01:29:29;;;;;;;18.15;12.93;;;;;;;;;;5092034;28;20071;-74
2022/08/29 01:31:56;;;;;;;20.80;12.75;;;;;;;;;;5092395;28;20028;-73
2022/08/29 01:34:22;;;;;;;17.55;11.80;;;;;;;;;;5092022;28;20012;-73
2022/08/29 01:37:08;;;;;;;21.42;13.75;;;;;;;;;;5083448;28;20019;-73
2022/08/29 01:39:35;;;;;;;19.98;13.57;;;;;;;;;;5081622;28;20032;-74
2022/08/29 01:42:03;;;;;;;17.13;11.73;;;;;;;;;;5091759;28;20065;-73
2022/08/29 01:44:29;;;;;;;15.77;12.10;;;;;;;;;;5091720;28;20020;-73
2022/08/29 01:46:56;;;;;;;19.98;13.50;;;;;;;;;;5090721;28;20046;-73
2022/08/29 01:49:23;;;;;;;17.02;14.05;;;;;;;;;;5090396;28;20016;-75
2022/08/29 01:51:50;;;;;;;16.02;14.35;;;;;;;;;;5091539;28;20027;-73
2022/08/29 01:54:17;;;;;;;16.45;12.98;;;;;;;;;;5091479;28;20051;-75
2022/08/29 01:56:47;;;;;;;23.52;14.00;;;;;;;;;;5091787;28;20027;-74
2022/08/29 01:59:14;;;;;;;16.77;11.68;;;;;;;;;;5090113;28;20028;-74
2022/08/29 02:01:43;;;;;;;15.43;13.15;;;;;;;;;;5091375;28;20383;-75
2022/08/29 02:04:09;;;;;;;17.30;12.27;;;;;;;;;;5091876;28;20020;-75
2022/08/29 02:06:35;;;;;;;21.45;13.23;;;;;;;;;;5088212;28;20073;-75
2022/08/29 02:09:02;;;;;;;17.77;13.48;;;;;;;;;;5090182;28;20020;-75
2022/08/29 02:11:28;;;;;;;18.48;15.18;;;;;;;;;;5091354;28;20031;-74
2022/08/29 02:13:55;;;;;;;22.65;15.18;;;;;;;;;;5090005;28;20024;-75
2022/08/29 02:16:22;;;;;;;20.40;16.15;;;;;;;;;;5090179;28;20085;-74
2022/08/29 02:18:49;;;;;;;25.33;15.98;;;;;;;;;;5084804;28;20020;-74
2022/08/29 02:21:16;;;;;;;24.88;16.48;;;;;;;;;;5090449;28;20074;-73
2022/08/29 02:23:43;;;;;;;22.42;16.80;;;;;;;;;;5091391;28;20094;-74
2022/08/29 02:26:09;;;;;;;20.80;15.98;;;;;;;;;;5089944;28;20020;-74
2022/08/29 02:28:36;;;;;;;28.08;16.83;;;;;;;;;;5091087;28;20016;-73
2022/08/29 02:31:03;;;;;;;25.73;17.58;;;;;;;;;;5089775;28;20357;-73
2022/08/29 02:33:30;;;;;;;18.92;15.02;;;;;;;;;;5090017;28;20020;-73
2022/08/29 02:35:56;;;;;;;25.73;17.48;;;;;;;;;;5089874;28;20059;-74
2022/08/29 02:38:22;;;;;;;20.73;16.33;;;;;;;;;;5090795;28;20016;-74
2022/08/29 02:40:49;;;;;;;25.67;19.25;;;;;;;;;;5089897;28;21780;-75
2022/08/29 02:43:16;;;;;;;26.30;15.93;;;;;;;;;;5122260;28;20380;-74
2022/08/29 02:45:43;;;;;;;28.38;15.88;;;;;;;;;;5090893;28;20016;-74
2022/08/29 02:48:10;;;;;;;19.75;16.15;;;;;;;;;;5123823;27;20027;-75
2022/08/29 02:50:39;;;;;;;17.77;15.82;;;;;;;;;;5091442;28;20017;-75
2022/08/29 02:53:05;;;;;;;19.98;14.90;;;;;;;;;;5090892;28;20055;-74
2022/08/29 02:55:31;;;;;;;27.83;15.15;;;;;;;;;;5089647;28;20024;-74
2022/08/29 02:57:57;;;;;;;20.42;16.25;;;;;;;;;;5089222;28;20017;-74
2022/08/29 03:00:25;;;;;;;21.80;16.33;;;;;;;;;;5090801;28;20043;-74
2022/08/29 03:02:51;;;;;;;25.35;18.00;;;;;;;;;;5089571;28;20020;-74
2022/08/29 03:05:19;;;;;;;19.45;16.85;;;;;;;;;;5090823;28;20021;-74
2022/08/29 03:07:46;;;;;;;23.75;17.35;;;;;;;;;;5086231;28;20020;-75
2022/08/29 03:10:12;;;;;;;24.35;17.45;;;;;;;;;;5083944;28;20357;-75
2022/08/29 03:12:38;;;;;;;23.92;17.77;;;;;;;;;;5103940;28;20075;-76
2022/08/29 03:15:06;;;;;;;24.38;17.83;;;;;;;;;;5090787;28;20091;-74
2022/08/29 03:17:32;;;;;;;21.77;17.65;;;;;;;;;;5089460;28;20020;-74
2022/08/29 03:19:58;;;;;;;24.50;18.98;;;;;;;;;;5123384;27;20036;-75
2022/08/29 03:22:25;;;;;;;28.20;18.33;;;;;;;;;;5123234;27;20494;-75
2022/08/29 03:24:51;;;;;;;21.48;18.48;;;;;;;;;;5089342;28;20020;-75
2022/08/29 03:27:17;;;;;;;24.33;18.40;;;;;;;;;;5090794;28;20020;-74
2022/08/29 03:29:43;;;;;;;30.80;19.38;;;;;;;;;;5090987;28;20054;-74
2022/08/29 03:32:10;;;;;;;23.88;21.13;;;;;;;;;;5092205;28;20028;-73
2022/08/29 03:34:38;;;;;;;23.73;20.13;;;;;;;;;;5088649;28;20028;-74
2022/08/29 03:37:04;;;;;;;22.92;19.13;;;;;;;;;;5093016;28;20016;-74
2022/08/29 03:39:31;;;;;;;20.67;18.10;;;;;;;;;;5093905;28;20065;-76
2022/08/29 03:41:57;;;;;;;23.35;18.27;;;;;;;;;;5093072;28;20114;-74
2022/08/29 03:44:23;;;;;;;21.33;18.38;;;;;;;;;;5093969;28;20101;-74
2022/08/29 03:46:49;;;;;;;28.90;20.58;;;;;;;;;;5092967;28;20162;-75
2022/08/29 03:49:15;;;;;;;25.27;19.60;;;;;;;;;;5091479;28;20012;-74
2022/08/29 03:51:41;;;;;;;24.90;21.05;;;;;;;;;;5085031;28;20027;-74
2022/08/29 03:54:08;;;;;;;21.63;17.90;;;;;;;;;;5092481;28;20020;-74
2022/08/29 03:56:34;;;;;;;28.77;20.13;;;;;;;;;;5094083;28;20944;-74
2022/08/29 03:59:00;;;;;;;32.13;21.73;;;;;;;;;;5092513;28;20024;-74
2022/08/29 04:01:28;;;;;;;36.28;23.50;;;;;;;;;;5092078;28;20460;-74
2022/08/29 04:03:54;;;;;;;25.85;20.13;;;;;;;;;;5093907;28;20016;-75
2022/08/29 04:06:21;;;;;;;28.02;18.73;;;;;;;;;;5126519;27;20027;-74
2022/08/29 04:08:47;;;;;;;28.33;21.35;;;;;;;;;;5093935;28;20016;-75
2022/08/29 04:11:14;;;;;;;29.02;21.23;;;;;;;;;;5093093;28;20023;-75
2022/08/29 04:13:40;;;;;;;28.70;21.48;;;;;;;;;;5126321;27;20048;-75
2022/08/29 04:16:10;;;;;;;28.80;22.25;;;;;;;;;;5092345;28;20065;-75
2022/08/29 04:18:36;;;;;;;32.83;22.90;;;;;;;;;;5126148;27;20452;-74
2022/08/29 04:21:04;;;;;;;26.05;21.67;;;;;;;;;;5091940;28;20015;-74
2022/08/29 04:23:31;;;;;;;28.35;24.42;;;;;;;;;;5091649;28;20087;-75
2022/08/29 04:25:57;;;;;;;26.65;22.92;;;;;;;;;;5093468;28;20023;-74
2022/08/29 04:28:24;;;;;;;31.88;23.88;;;;;;;;;;5126089;27;20055;-75
2022/08/29 04:30:51;;;;;;;25.13;22.23;;;;;;;;;;5093289;28;20060;-75
2022/08/29 04:33:18;;;;;;;29.80;24.10;;;;;;;;;;5091599;28;20143;-74
2022/08/29 04:35:44;;;;;;;28.30;24.08;;;;;;;;;;5083899;28;20095;-74
2022/08/29 04:38:10;;;;;;;26.98;23.63;;;;;;;;;;5121625;27;20070;-75
2022/08/29 04:40:39;;;;;;;30.70;21.98;;;;;;;;;;5092889;28;20078;-75
2022/08/29 04:43:05;;;;;;;26.92;23.13;;;;;;;;;;5125378;27;20043;-75
2022/08/29 04:45:34;;;;;;;26.92;24.05;;;;;;;;;;5091705;28;20391;-75
2022/08/29 04:48:01;;;;;;;28.48;21.92;;;;;;;;;;5084907;28;20020;-75
2022/08/29 04:50:28;;;;;;;31.75;24.85;;;;;;;;;;5080852;28;20039;-75
2022/08/29 04:52:54;;;;;;;30.45;22.88;;;;;;;;;;5091249;28;20013;-75
2022/08/29 04:55:21;;;;;;;34.78;22.48;;;;;;;;;;5125453;27;20031;-75
2022/08/29 04:57:48;;;;;;;28.98;23.35;;;;;;;;;;5092840;28;20102;-74
2022/08/29 05:00:16;;;;;;;27.92;24.48;;;;;;;;;;5097982;28;20032;-76
2022/08/29 05:02:43;;;;;;;33.47;27.25;;;;;;;;;;5096707;28;20020;-77
2022/08/29 05:05:10;;;;;;;29.27;25.15;;;;;;;;;;5097825;28;20016;-75
2022/08/29 05:07:36;;;;;;;36.08;25.35;;;;;;;;;;5094089;28;20027;-74
2022/08/29 05:10:06;;;;;;;34.53;25.50;;;;;;;;;;5090814;28;20024;-75
2022/08/29 05:12:32;;;;;;;30.00;25.02;;;;;;;;;;5091099;28;20028;-74
2022/08/29 05:14:59;;;;;;;31.67;23.63;;;;;;;;;;5092958;28;20016;-74
2022/08/29 05:17:25;;;;;;;37.17;27.98;;;;;;;;;;5090874;28;20468;-76
2022/08/29 05:19:51;;;;;;;38.15;27.48;;;;;;;;;;5092363;28;20130;-76
2022/08/29 05:22:18;;;;;;;39.95;28.08;;;;;;;;;;5091958;28;20040;-75
2022/08/29 05:24:45;;;;;;;37.40;29.55;;;;;;;;;;5091006;28;20361;-75
2022/08/29 05:27:13;;;;;;;47.58;30.80;;;;;;;;;;5092313;28;20021;-74
2022/08/29 05:29:40;;;;;;;43.20;28.88;;;;;;;;;;5092395;28;20114;-76
2022/08/29 05:32:09;;;;;;;30.83;27.33;;;;;;;;;;5092636;28;20486;-75
2022/08/29 05:34:37;;;;;;;34.58;29.88;;;;;;;;;;5091122;28;20028;-75
2022/08/29 05:37:05;;;;;;;40.88;30.55;;;;;;;;;;5092228;28;20091;-75
2022/08/29 05:39:31;;;;;;;39.85;33.20;;;;;;;;;;5079937;28;20038;-75
2022/08/29 05:41:58;;;;;;;38.08;31.05;;;;;;;;;;5124568;27;20024;-74
2022/08/29 05:44:25;;;;;;;41.97;30.20;;;;;;;;;;5091961;28;20012;-75
2022/08/29 05:46:51;;;;;;;41.47;32.15;;;;;;;;;;5092569;28;20111;-77
2022/08/29 05:49:17;;;;;;;46.08;34.85;;;;;;;;;;5090249;28;20115;-74
2022/08/29 05:51:43;;;;;;;40.60;30.98;;;;;;;;;;5090547;28;20028;-74
2022/08/29 05:54:09;;;;;;;37.10;31.02;;;;;;;;;;5089798;28;20034;-72
2022/08/29 05:56:35;;;;;;;45.25;34.25;;;;;;;;;;5123324;27;20024;-74
2022/08/29 05:59:01;;;;;;;39.90;32.90;;;;;;;;;;5089957;28;20078;-75
2022/08/29 06:01:28;;;;;;;44.13;34.40;;;;;;;;;;5099985;28;20024;-73
2022/08/29 06:03:55;;;;;;;48.45;35.45;;;;;;;;;;5091449;28;20048;-75
2022/08/29 06:06:22;;;;;;;41.40;32.72;;;;;;;;;;5091066;28;20031;-74
2022/08/29 06:08:48;;;;;;;37.08;30.73;;;;;;;;;;5096706;28;20463;-75
2022/08/29 06:11:15;;;;;;;43.75;34.55;;;;;;;;;;5087812;28;20024;-75
2022/08/29 06:13:42;;;;;;;45.95;36.78;;;;;;;;;;5094510;28;20024;-76
2022/08/29 06:16:10;;;;;;;40.88;33.80;;;;;;;;;;5093933;28;20101;-75
2022/08/29 06:18:36;;;;;;;42.88;37.75;;;;;;;;;;5092824;28;20063;-75
2022/08/29 06:21:05;;;;;;;39.53;32.45;;;;;;;;;;5089621;28;20028;-74
2022/08/29 06:23:31;;;;;;;44.60;32.20;;;;;;;;;;5091128;28;20395;-76
2022/08/29 06:25:58;;;;;;;36.90;31.20;;;;;;;;;;5090589;28;20016;-74
2022/08/29 06:28:26;;;;;;;34.25;30.17;;;;;;;;;;5123764;27;20039;-75
2022/08/29 06:30:52;;;;;;;37.08;29.90;;;;;;;;;;5089552;28;20020;-75
2022/08/29 06:33:18;;;;;;;39.90;27.90;;;;;;;;;;5092933;28;20097;-75
2022/08/29 06:35:45;;;;;;;33.45;28.75;;;;;;;;;;5089130;28;20028;-74
2022/08/29 06:38:10;;;;;;;34.08;28.70;;;;;;;;;;5089496;28;20032;-74
2022/08/29 06:40:37;;;;;;;35.50;27.90;;;;;;;;;;5122876;27;20090;-74
2022/08/29 06:43:03;;;;;;;37.17;29.52;;;;;;;;;;5090528;28;20020;-74
2022/08/29 06:45:29;;;;;;;36.00;29.05;;;;;;;;;;5086345;28;20026;-75
2022/08/29 06:47:55;;;;;;;31.45;27.63;;;;;;;;;;5089367;28;20054;-75
2022/08/29 06:50:21;;;;;;;33.13;28.15;;;;;;;;;;5090778;28;20020;-75
2022/08/29 06:52:47;;;;;;;35.47;27.70;;;;;;;;;;5089042;28;20047;-76
2022/08/29 06:55:14;;;;;;;34.50;26.13;;;;;;;;;;5089457;28;20016;-76
2022/08/29 06:57:43;;;;;;;31.92;26.05;;;;;;;;;;5090514;28;20064;-77
2022/08/29 07:00:11;;;;;;;27.02;23.60;;;;;;;;;;5115412;28;20522;-75
2022/08/29 07:02:38;;;;;;;27.90;23.98;;;;;;;;;;5076509;28;20405;-77
2022/08/29 07:05:04;;;;;;;28.90;24.88;;;;;;;;;;5090931;28;20016;-75
2022/08/29 07:07:30;;;;;;;30.98;22.02;;;;;;;;;;5093066;28;20073;-76
2022/08/29 07:09:57;;;;;;;22.02;18.15;;;;;;;;;;5092925;28;20372;-76
2022/08/29 07:12:23;;;;;;;20.05;18.08;;;;;;;;;;5126929;27;20020;-77
2022/08/29 07:14:49;;;;;;;26.35;18.50;;;;;;;;;;5094203;28;20020;-77
2022/08/29 07:17:15;;;;;;;20.90;18.05;;;;;;;;;;5084951;28;20012;-78
2022/08/29 07:19:41;;;;;;;23.15;15.85;;;;;;;;;;5094287;28;20080;-77
2022/08/29 07:22:07;;;;;;;21.52;14.35;;;;;;;;;;5112553;27;20025;-75
2022/08/29 07:24:33;;;;;;;21.73;17.00;;;;;;;;;;5094320;28;20016;-77
2022/08/29 07:27:00;;;;;;;27.67;19.92;;;;;;;;;;5093197;28;20020;-78
2022/08/29 07:29:26;;;;;;;23.20;18.40;;;;;;;;;;5083347;28;20024;-79
2022/08/29 07:31:52;;;;;;;22.75;19.73;;;;;;;;;;5094236;28;20046;-80
2022/08/29 07:34:19;;;;;;;22.98;17.73;;;;;;;;;;5089498;28;20016;-77
2022/08/29 07:36:46;;;;;;;17.13;14.98;;;;;;;;;;5126825;27;20022;-77
2022/08/29 07:39:14;;;;;;;19.95;15.77;;;;;;;;;;5081884;28;20077;-76
2022/08/29 07:41:41;;;;;;;21.83;18.02;;;;;;;;;;5094206;28;20656;-77
2022/08/29 07:44:07;;;;;;;20.80;14.23;;;;;;;;;;5094282;28;20059;-76
2022/08/29 07:46:33;;;;;;;31.67;26.10;;;;;;;;;;5093648;28;20418;-79
2022/08/29 07:49:00;;;;;;;21.17;17.13;;;;;;;;;;5092501;28;20024;-79
2022/08/29 07:51:26;;;;;;;17.83;14.13;;;;;;;;;;5094367;28;20104;-78
2022/08/29 07:53:52;;;;;;;17.95;14.15;;;;;;;;;;5094014;28;20020;-79
2022/08/29 07:56:24;;;;;;;19.02;14.35;;;;;;;;;;5093547;28;20027;-78
2022/08/29 07:58:50;;;;;;;14.95;13.32;;;;;;;;;;5083604;28;20471;-77
2022/08/29 08:01:16;;;;;;;28.55;13.02;;;;;;;;;;5092232;28;20050;-76
2022/08/29 08:03:42;;;;;;;24.73;22.25;;;;;;;;;;5092251;28;20031;-77
2022/08/29 08:06:08;;;;;;;20.80;12.75;;;;;;;;;;5091976;28;20020;-78
2022/08/29 08:08:34;;;;;;;15.25;12.95;;;;;;;;;;5126395;27;20024;-76
2022/08/29 08:11:03;;;;;;;13.60;11.65;;;;;;;;;;5092072;28;20054;-77
2022/08/29 08:13:29;;;;;;;21.13;13.10;;;;;;;;;;5093254;28;20024;-78
2022/08/29 08:15:55;;;;;;;18.67;13.00;;;;;;;;;;5093039;28;20391;-80
2022/08/29 08:18:21;;;;;;;22.70;16.02;;;;;;;;;;5092437;28;20440;-77
2022/08/29 08:20:47;;;;;;;21.30;12.73;;;;;;;;;;5092613;28;20028;-78
2022/08/29 08:23:14;;;;;;;30.75;21.23;;;;;;;;;;5092724;28;20044;-79
2022/08/29 08:25:41;;;;;;;16.00;13.40;;;;;;;;;;5091844;28;20116;-78
2022/08/29 08:28:07;;;;;;;17.10;12.23;;;;;;;;;;5093582;28;20024;-77
2022/08/29 08:30:33;;;;;;;12.18;10.90;;;;;;;;;;5091827;28;20364;-79
2022/08/29 08:32:59;;;;;;;16.98;13.10;;;;;;;;;;5088323;28;20060;-77
2022/08/29 08:35:25;;;;;;;16.10;12.10;;;;;;;;;;5093014;28;20020;-76
2022/08/29 08:37:52;;;;;;;16.85;14.05;;;;;;;;;;5091458;28;20063;-77
2022/08/29 08:40:25;;;;;;;17.58;15.75;;;;;;;;;;5093142;28;20032;-79
2022/08/29 08:42:52;;;;;;;15.85;12.95;;;;;;;;;;5123499;27;20046;-77
2022/08/29 08:45:28;;;;;;;14.55;12.32;;;;;;;;;;5089886;28;20035;-76
2022/08/29 08:48:04;;;;;;;22.80;13.98;;;;;;;;;;5091703;28;20012;-78
2022/08/29 08:50:36;;;;;;;19.63;14.60;;;;;;;;;;5093137;28;20033;-79
2022/08/29 08:53:06;;;;;;;15.88;12.02;;;;;;;;;;5088169;28;20048;-78
2022/08/29 08:55:46;;;;;;;19.88;16.35;;;;;;;;;;5087859;28;20410;-76
2022/08/29 08:58:31;;;;;;;20.92;17.67;;;;;;;;;;5093139;28;20052;-77
2022/08/29 09:01:03;;;;;;;30.42;26.98;;;;;;;;;;5086992;28;20114;-77
2022/08/29 09:03:45;;;;;;;13.93;12.23;;;;;;;;;;5088754;28;20058;-76
2022/08/29 09:06:26;;;;;;;16.10;11.30;;;;;;;;;;5086077;28;20032;-79
2022/08/29 09:09:04;;;;;;;17.10;14.18;;;;;;;;;;5080182;28;20377;-76
2022/08/29 09:11:40;;;;;;;13.45;11.70;;;;;;;;;;5092546;28;20119;-77
2022/08/29 09:14:16;;;;;;;14.15;10.80;;;;;;;;;;5086571;28;20023;-77
2022/08/29 09:16:47;;;;;;;20.02;15.77;;;;;;;;;;5089657;28;20032;-76
2022/08/29 09:19:13;;;;;;;14.32;10.95;;;;;;;;;;5092242;28;20043;-78
2022/08/29 09:21:52;;;;;;;17.30;11.95;;;;;;;;;;5124953;27;20016;-78
2022/08/29 09:24:33;;;;;;;13.82;11.20;;;;;;;;;;5092247;28;20036;-78
2022/08/29 09:26:59;;;;;;;17.73;15.85;;;;;;;;;;5085410;28;20519;-79
2022/08/29 09:29:27;;;;;;;20.13;16.60;;;;;;;;;;5083421;28;20056;-77
2022/08/29 09:32:23;;;;;;;17.38;11.77;;;;;;;;;;5090872;28;20024;-78
2022/08/29 09:34:49;;;;;;;17.23;13.98;;;;;;;;;;5063083;28;20423;-80
2022/08/29 09:37:24;;;;;;;19.00;15.20;;;;;;;;;;5091850;28;20023;-79
2022/08/29 09:39:55;;;;;;;38.70;34.78;;;;;;;;;;5090643;28;20032;-78
2022/08/29 09:42:24;;;;;;;29.25;20.95;;;;;;;;;;5092091;28;20025;-77
2022/08/29 09:44:54;;;;;;;17.95;11.30;;;;;;;;;;5090216;28;20020;-76
2022/08/29 09:47:22;;;;;;;12.10;9.75;;;;;;;;;;5091269;28;20055;-78
2022/08/29 09:50:18;;;;;;;20.27;17.00;;;;;;;;;;5091928;28;20016;-78
2022/08/29 09:52:56;;;;;;;32.78;29.48;;;;;;;;;;5069681;28;20097;-79
2022/08/29 09:55:22;;;;;;;22.20;17.88;;;;;;;;;;5091545;28;20402;-79
2022/08/29 09:57:53;;;;;;;18.38;16.35;;;;;;;;;;5079868;28;20025;-78
2022/08/29 10:00:24;;;;;;;16.33;14.48;;;;;;;;;;5117668;27;20376;-78
2022/08/29 10:02:59;;;;;;;17.90;15.82;;;;;;;;;;5073560;28;20020;-78
2022/08/29 10:05:30;;;;;;;13.73;10.38;;;;;;;;;;5091246;28;20020;-80
2022/08/29 10:07:56;;;;;;;16.05;11.32;;;;;;;;;;5088221;28;20028;-78
2022/08/29 10:10:24;;;;;;;14.90;11.15;;;;;;;;;;5089831;28;20024;-79
2022/08/29 10:12:50;;;;;;;11.65;10.38;;;;;;;;;;5086403;28;20020;-77
2022/08/29 10:15:27;;;;;;;18.25;15.35;;;;;;;;;;5090052;28;20020;-79
2022/08/29 10:18:27;;;;;;;18.80;13.52;;;;;;;;;;5078508;28;20093;-77
2022/08/29 10:20:56;;;;;;;15.32;11.57;;;;;;;;;;5122127;27;20032;-79
2022/08/29 10:23:22;;;;;;;11.32;10.18;;;;;;;;;;5123644;27;20052;-79
2022/08/29 10:25:48;;;;;;;16.90;14.48;;;;;;;;;;5088602;28;20020;-79
2022/08/29 10:28:35;;;;;;;14.50;11.70;;;;;;;;;;5079923;28;20410;-77
2022/08/29 10:31:07;;;;;;;12.25;10.07;;;;;;;;;;5091403;28;20476;-76
2022/08/29 10:33:43;;;;;;;14.05;10.15;;;;;;;;;;5090043;28;20489;-78
2022/08/29 10:36:21;;;;;;;12.57;9.43;;;;;;;;;;5085859;28;20475;-78
2022/08/29 10:38:50;;;;;;;18.88;12.20;;;;;;;;;;5089012;28;20031;-78
2022/08/29 10:41:28;;;;;;;16.25;14.38;;;;;;;;;;5092329;28;20040;-78
2022/08/29 10:44:27;;;;;;;11.90;10.00;;;;;;;;;;5095883;28;20042;-78
2022/08/29 10:46:53;;;;;;;11.82;9.15;;;;;;;;;;5059017;28;20036;-77
2022/08/29 10:49:22;;;;;;;14.50;9.77;;;;;;;;;;5093585;28;20038;-77
2022/08/29 10:51:57;;;;;;;12.88;8.77;;;;;;;;;;5091074;28;20147;-77
2022/08/29 10:54:26;;;;;;;11.02;9.13;;;;;;;;;;5093518;28;20023;-78
2022/08/29 10:56:57;;;;;;;14.35;12.80;;;;;;;;;;5097642;28;20020;-78
2022/08/29 10:59:26;;;;;;;14.57;10.13;;;;;;;;;;5124468;27;20550;-79
2022/08/29 11:02:04;;;;;;;14.70;13.10;;;;;;;;;;5094913;28;20024;-78
2022/08/29 11:04:36;;;;;;;13.73;12.15;;;;;;;;;;5120871;27;20542;-76
2022/08/29 11:07:02;;;;;;;13.93;11.70;;;;;;;;;;5092923;28;20024;-79
2022/08/29 11:09:43;;;;;;;32.00;28.70;;;;;;;;;;5121007;27;20386;-78
2022/08/29 11:12:21;;;;;;;29.48;25.73;;;;;;;;;;5096814;28;20028;-80
2022/08/29 11:14:47;;;;;;;20.35;18.27;;;;;;;;;;5091234;28;20024;-77
2022/08/29 11:17:16;;;;;;;28.92;25.90;;;;;;;;;;5122520;27;20020;-77
2022/08/29 11:19:42;;;;;;;37.42;33.60;;;;;;;;;;5096780;28;20034;-78
2022/08/29 11:22:23;;;;;;;17.30;10.93;;;;;;;;;;5126437;27;20453;-78
2022/08/29 11:24:57;;;;;;;31.67;26.98;;;;;;;;;;5121520;27;20623;-78
2022/08/29 11:27:23;;;;;;;23.40;13.75;;;;;;;;;;5129091;27;20070;-78
2022/08/29 11:30:01;;;;;;;13.25;10.18;;;;;;;;;;5129460;27;20024;-77
2022/08/29 11:32:46;;;;;;;31.05;27.80;;;;;;;;;;5126878;27;20024;-77
2022/08/29 11:35:19;;;;;;;14.35;10.68;;;;;;;;;;5127114;27;20056;-76
2022/08/29 11:37:58;;;;;;;15.20;11.38;;;;;;;;;;5097230;28;20072;-78
2022/08/29 11:40:43;;;;;;;49.17;43.50;;;;;;;;;;5124229;27;20068;-78
2022/08/29 11:43:12;;;;;;;13.07;8.48;;;;;;;;;;5115059;27;20029;-77
2022/08/29 11:45:40;;;;;;;25.63;22.85;;;;;;;;;;5093657;28;20111;-77
2022/08/29 11:48:15;;;;;;;25.98;19.52;;;;;;;;;;5130203;27;20379;-79
2022/08/29 11:50:41;;;;;;;16.45;12.10;;;;;;;;;;5086219;28;20016;-79
2022/08/29 11:53:21;;;;;;;18.92;16.73;;;;;;;;;;5128966;27;20420;-78
2022/08/29 11:56:18;;;;;;;20.60;14.40;;;;;;;;;;5091840;28;20023;-78
2022/08/29 11:58:44;;;;;;;17.60;13.82;;;;;;;;;;5085026;28;20513;-78
2022/08/29 12:01:12;;;;;;;14.10;9.65;;;;;;;;;;5090922;28;20067;-78
2022/08/29 12:03:38;;;;;;;18.65;14.98;;;;;;;;;;5127125;27;20025;-78
2022/08/29 12:06:23;;;;;;;19.83;16.38;;;;;;;;;;5091325;28;20016;-79
2022/08/29 12:08:58;;;;;;;17.55;11.10;;;;;;;;;;5082940;28;20037;-78
2022/08/29 12:11:42;;;;;;;12.65;11.43;;;;;;;;;;5093651;28;20028;-79
2022/08/29 12:14:11;;;;;;;12.15;9.75;;;;;;;;;;5092183;28;20028;-77
2022/08/29 12:16:45;;;;;;;15.75;8.90;;;;;;;;;;5092574;28;20017;-77
2022/08/29 12:19:11;;;;;;;15.07;9.75;;;;;;;;;;5122593;27;20033;-77
2022/08/29 12:21:38;;;;;;;13.90;10.73;;;;;;;;;;5082437;28;20020;-78
2022/08/29 12:24:05;;;;;;;14.20;11.70;;;;;;;;;;5079499;28;20040;-78
2022/08/29 12:26:40;;;;;;;14.15;12.20;;;;;;;;;;5126311;27;20536;-79
2022/08/29 12:29:06;;;;;;;45.08;40.35;;;;;;;;;;5080126;28;20078;-76
2022/08/29 12:31:51;;;;;;;31.48;28.40;;;;;;;;;;5121982;27;20487;-78
2022/08/29 12:34:23;;;;;;;29.23;23.60;;;;;;;;;;5126404;27;20142;-78
2022/08/29 12:37:15;;;;;;;20.20;18.13;;;;;;;;;;5079313;28;20479;-77
2022/08/29 12:40:04;;;;;;;11.38;8.05;;;;;;;;;;5050343;28;20517;-78
2022/08/29 12:42:30;;;;;;;36.45;32.60;;;;;;;;;;5091161;28;20031;-78
2022/08/29 12:45:11;;;;;;;55.50;49.88;;;;;;;;;;5092868;28;20020;-78
2022/08/29 12:47:44;;;;;;;16.40;12.15;;;;;;;;;;5115416;27;20043;-78
2022/08/29 12:50:30;;;;;;;17.80;15.90;;;;;;;;;;5093266;28;20475;-78
2022/08/29 12:52:59;;;;;;;9.88;8.88;;;;;;;;;;5118720;27;20032;-79
2022/08/29 12:55:26;;;;;;;19.90;17.27;;;;;;;;;;5091476;28;20028;-78
2022/08/29 12:57:53;;;;;;;23.42;17.45;;;;;;;;;;5125746;27;20506;-77
2022/08/29 13:00:21;;;;;;;17.25;14.07;;;;;;;;;;5093130;28;20063;-79
2022/08/29 13:02:56;;;;;;;18.77;15.48;;;;;;;;;;5125597;27;20324;-78
2022/08/29 13:05:24;;;;;;;19.05;16.65;;;;;;;;;;5125417;27;20100;-78
2022/08/29 13:07:59;;;;;;;22.40;20.02;;;;;;;;;;5083626;28;20035;-76
2022/08/29 13:10:25;;;;;;;10.30;8.50;;;;;;;;;;5091190;28;20161;-79
2022/08/29 13:12:55;;;;;;;24.02;21.23;;;;;;;;;;5104575;28;20016;-78
2022/08/29 13:15:28;;;;;;;29.70;26.55;;;;;;;;;;5078586;28;20069;-78
2022/08/29 13:17:55;;;;;;;16.90;14.38;;;;;;;;;;5091123;28;20024;-79
2022/08/29 13:20:39;;;;;;;14.23;11.40;;;;;;;;;;5118814;27;20067;-78
2022/08/29 13:23:11;;;;;;;19.52;13.63;;;;;;;;;;5119571;27;20076;-78
2022/08/29 13:25:46;;;;;;;19.60;17.67;;;;;;;;;;5119209;27;20495;-78
2022/08/29 13:28:35;;;;;;;12.88;10.63;;;;;;;;;;5105395;28;20091;-78
2022/08/29 13:31:03;;;;;;;15.48;13.90;;;;;;;;;;5083479;28;20024;-77
2022/08/29 13:33:29;;;;;;;10.10;9.10;;;;;;;;;;5089790;28;20034;-79
2022/08/29 13:35:55;;;;;;;13.10;11.82;;;;;;;;;;5115947;27;20528;-80
2022/08/29 13:38:23;;;;;;;11.05;7.97;;;;;;;;;;5117888;27;20024;-80
2022/08/29 13:40:54;;;;;;;7.65;6.55;;;;;;;;;;5091210;28;20059;-79
2022/08/29 13:43:35;;;;;;;10.98;7.07;;;;;;;;;;5090546;28;20024;-77
2022/08/29 13:46:02;;;;;;;29.52;20.98;;;;;;;;;;5082472;28;20028;-79
2022/08/29 13:48:29;;;;;;;9.77;7.00;;;;;;;;;;5084260;28;20055;-78
2022/08/29 13:50:57;;;;;;;12.55;8.65;;;;;;;;;;5124444;27;20030;-77
2022/08/29 13:53:23;;;;;;;17.90;15.30;;;;;;;;;;5119841;27;20024;-78
2022/08/29 13:55:49;;;;;;;29.42;26.50;;;;;;;;;;5121336;27;20397;-81
2022/08/29 13:58:18;;;;;;;13.25;7.53;;;;;;;;;;5091254;28;20126;-78
2022/08/29 14:00:44;;;;;;;18.17;16.13;;;;;;;;;;5120960;27;20066;-78
2022/08/29 14:03:15;;;;;;;10.13;8.10;;;;;;;;;;5078991;28;20095;-75
2022/08/29 14:05:42;;;;;;;6.97;6.30;;;;;;;;;;5088226;28;20596;-73
2022/08/29 14:08:10;;;;;;;5.63;5.03;;;;;;;;;;5090347;28;20032;-75
2022/08/29 14:10:36;;;;;;;8.07;5.95;;;;;;;;;;5087575;28;20029;-76
2022/08/29 14:13:03;;;;;;;7.53;6.80;;;;;;;;;;5088717;28;20018;-78
2022/08/29 14:15:29;;;;;;;14.93;12.55;;;;;;;;;;5090063;28;20498;-77
2022/08/29 14:17:58;;;;;;;5.35;4.53;;;;;;;;;;5090667;28;20020;-76
2022/08/29 14:20:26;;;;;;;6.43;4.68;;;;;;;;;;5123615;27;20076;-76
2022/08/29 14:22:52;;;;;;;11.63;9.20;;;;;;;;;;5091497;28;20071;-77
2022/08/29 14:25:19;;;;;;;10.77;8.05;;;;;;;;;;5090795;28;20039;-76
2022/08/29 14:27:46;;;;;;;15.82;12.82;;;;;;;;;;5123234;27;20028;-75
2022/08/29 14:30:14;;;;;;;15.45;11.32;;;;;;;;;;5091278;28;20019;-75
2022/08/29 14:32:40;;;;;;;23.85;20.25;;;;;;;;;;5120433;27;20032;-77